sensor_id;sensor_type;location;lat;lon;timestamp;P1;durP1;ratioP1;P2;durP2;ratioP2
3677;SDS011;1855;50.934;6.958;2022-12-18T00:00:07;11.20;;;10.00;;
3677;SDS011;1855;50.934;6.958;2022-12-18T00:02:34;13.38;;;11.23;;
3677;SDS011;1855;50.934;6.958;2022-12-18T00:05:01;12.10;;;10.85;;
3677;SDS011;1855;50.934;6.958;2022-12-18T00:07:27;12.18;;;10.65;;
3677;SDS011;1855;50.934;6.958;2022-12-18T00:09:54;12.50;;;11.02;;
3677;SDS011;1855;50.934;6.958;2022-12-18T00:12:21;12.60;;;10.95;;
3677;SDS011;1855;50.934;6.958;2022-12-18T00:14:48;11.32;;;10.13;;
3677;SDS011;1855;50.934;6.958;2022-12-18T00:17:16;11.10;;;10.00;;
3677;SDS011;1855;50.934;6.958;2022-12-18T00:19:42;12.73;;;10.57;;
3677;SDS011;1855;50.934;6.958;2022-12-18T00:22:09;12.95;;;10.90;;
3677;SDS011;1855;50.934;6.958;2022-12-18T00:24:36;12.03;;;10.20;;
3677;SDS011;1855;50.934;6.958;2022-12-18T00:27:02;13.25;;;11.40;;
3677;SDS011;1855;50.934;6.958;2022-12-18T00:29:29;11.13;;;9.93;;
3677;SDS011;1855;50.934;6.958;2022-12-18T00:31:56;13.25;;;11.07;;
3677;SDS011;1855;50.934;6.958;2022-12-18T00:34:24;12.10;;;10.50;;
3677;SDS011;1855;50.934;6.958;2022-12-18T00:36:51;12.20;;;10.90;;
3677;SDS011;1855;50.934;6.958;2022-12-18T00:39:18;12.95;;;10.90;;
3677;SDS011;1855;50.934;6.958;2022-12-18T00:41:44;12.23;;;10.45;;
3677;SDS011;1855;50.934;6.958;2022-12-18T00:44:29;12.27;;;10.50;;
3677;SDS011;1855;50.934;6.958;2022-12-18T00:46:55;14.02;;;11.85;;
3677;SDS011;1855;50.934;6.958;2022-12-18T00:49:22;12.15;;;10.95;;
3677;SDS011;1855;50.934;6.958;2022-12-18T00:51:50;12.30;;;10.82;;
3677;SDS011;1855;50.934;6.958;2022-12-18T00:54:17;12.05;;;10.85;;
3677;SDS011;1855;50.934;6.958;2022-12-18T00:56:43;12.63;;;10.70;;
3677;SDS011;1855;50.934;6.958;2022-12-18T00:59:10;11.40;;;9.70;;
3677;SDS011;1855;50.934;6.958;2022-12-18T01:01:37;11.88;;;10.20;;
3677;SDS011;1855;50.934;6.958;2022-12-18T01:04:04;11.70;;;10.50;;
3677;SDS011;1855;50.934;6.958;2022-12-18T01:06:30;12.90;;;11.07;;
3677;SDS011;1855;50.934;6.958;2022-12-18T01:08:58;12.00;;;10.80;;
3677;SDS011;1855;50.934;6.958;2022-12-18T01:11:25;14.93;;;11.63;;
3677;SDS011;1855;50.934;6.958;2022-12-18T01:13:52;12.57;;;11.27;;
3677;SDS011;1855;50.934;6.958;2022-12-18T01:16:20;11.67;;;10.47;;
3677;SDS011;1855;50.934;6.958;2022-12-18T01:18:50;12.57;;;10.90;;
3677;SDS011;1855;50.934;6.958;2022-12-18T01:21:19;12.27;;;11.02;;
3677;SDS011;1855;50.934;6.958;2022-12-18T01:23:47;12.75;;;11.50;;
3677;SDS011;1855;50.934;6.958;2022-12-18T01:26:19;12.97;;;11.67;;
3677;SDS011;1855;50.934;6.958;2022-12-18T01:28:46;12.60;;;11.30;;
3677;SDS011;1855;50.934;6.958;2022-12-18T01:31:13;12.38;;;11.10;;
3677;SDS011;1855;50.934;6.958;2022-12-18T01:33:42;13.60;;;11.20;;
3677;SDS011;1855;50.934;6.958;2022-12-18T01:36:14;13.52;;;11.10;;
3677;SDS011;1855;50.934;6.958;2022-12-18T01:38:42;12.95;;;11.35;;
3677;SDS011;1855;50.934;6.958;2022-12-18T01:41:09;13.20;;;11.90;;
3677;SDS011;1855;50.934;6.958;2022-12-18T01:46:26;12.27;;;10.98;;
3677;SDS011;1855;50.934;6.958;2022-12-18T01:48:54;13.05;;;11.75;;
3677;SDS011;1855;50.934;6.958;2022-12-18T01:51:23;13.00;;;11.38;;
3677;SDS011;1855;50.934;6.958;2022-12-18T01:53:51;12.18;;;10.88;;
3677;SDS011;1855;50.934;6.958;2022-12-18T01:56:21;13.00;;;11.40;;
3677;SDS011;1855;50.934;6.958;2022-12-18T01:58:50;12.85;;;11.10;;
3677;SDS011;1855;50.934;6.958;2022-12-18T02:01:23;12.70;;;10.75;;
3677;SDS011;1855;50.934;6.958;2022-12-18T02:03:50;12.50;;;11.20;;
3677;SDS011;1855;50.934;6.958;2022-12-18T02:06:19;12.48;;;11.18;;
3677;SDS011;1855;50.934;6.958;2022-12-18T02:08:55;12.50;;;11.20;;
3677;SDS011;1855;50.934;6.958;2022-12-18T02:11:31;12.27;;;10.80;;
3677;SDS011;1855;50.934;6.958;2022-12-18T02:14:09;11.55;;;10.45;;
3677;SDS011;1855;50.934;6.958;2022-12-18T02:16:46;12.10;;;10.53;;
3677;SDS011;1855;50.934;6.958;2022-12-18T02:19:32;12.55;;;10.90;;
3677;SDS011;1855;50.934;6.958;2022-12-18T02:22:12;13.18;;;11.88;;
3677;SDS011;1855;50.934;6.958;2022-12-18T02:24:53;12.52;;;11.15;;
3677;SDS011;1855;50.934;6.958;2022-12-18T02:27:32;12.27;;;11.02;;
3677;SDS011;1855;50.934;6.958;2022-12-18T02:30:02;11.70;;;10.48;;
3677;SDS011;1855;50.934;6.958;2022-12-18T02:32:31;12.15;;;10.85;;
3677;SDS011;1855;50.934;6.958;2022-12-18T02:35:01;12.07;;;10.75;;
3677;SDS011;1855;50.934;6.958;2022-12-18T02:37:30;12.68;;;10.63;;
3677;SDS011;1855;50.934;6.958;2022-12-18T02:39:59;11.50;;;10.15;;
3677;SDS011;1855;50.934;6.958;2022-12-18T02:42:28;12.20;;;10.90;;
3677;SDS011;1855;50.934;6.958;2022-12-18T02:44:56;12.57;;;11.07;;
3677;SDS011;1855;50.934;6.958;2022-12-18T02:47:24;12.02;;;10.82;;
3677;SDS011;1855;50.934;6.958;2022-12-18T02:49:55;12.37;;;10.60;;
3677;SDS011;1855;50.934;6.958;2022-12-18T02:52:29;12.77;;;10.57;;
3677;SDS011;1855;50.934;6.958;2022-12-18T02:55:05;13.65;;;11.45;;
3677;SDS011;1855;50.934;6.958;2022-12-18T02:57:40;11.65;;;10.45;;
3677;SDS011;1855;50.934;6.958;2022-12-18T03:00:14;12.32;;;11.02;;
3677;SDS011;1855;50.934;6.958;2022-12-18T03:02:44;13.13;;;10.57;;
3677;SDS011;1855;50.934;6.958;2022-12-18T03:05:15;12.43;;;11.13;;
3677;SDS011;1855;50.934;6.958;2022-12-18T03:07:44;12.02;;;10.82;;
3677;SDS011;1855;50.934;6.958;2022-12-18T03:10:16;11.60;;;10.25;;
3677;SDS011;1855;50.934;6.958;2022-12-18T03:12:47;12.03;;;10.70;;
3677;SDS011;1855;50.934;6.958;2022-12-18T03:15:20;10.57;;;9.40;;
3677;SDS011;1855;50.934;6.958;2022-12-18T03:17:50;11.13;;;9.93;;
3677;SDS011;1855;50.934;6.958;2022-12-18T03:20:21;11.98;;;10.57;;
3677;SDS011;1855;50.934;6.958;2022-12-18T03:22:52;11.82;;;10.63;;
3677;SDS011;1855;50.934;6.958;2022-12-18T03:25:23;12.50;;;11.07;;
3677;SDS011;1855;50.934;6.958;2022-12-18T03:27:52;12.10;;;10.80;;
3677;SDS011;1855;50.934;6.958;2022-12-18T03:30:24;12.35;;;11.15;;
3677;SDS011;1855;50.934;6.958;2022-12-18T03:33:01;12.13;;;10.83;;
3677;SDS011;1855;50.934;6.958;2022-12-18T03:35:32;11.70;;;10.52;;
3677;SDS011;1855;50.934;6.958;2022-12-18T03:38:02;12.50;;;10.85;;
3677;SDS011;1855;50.934;6.958;2022-12-18T03:40:31;11.30;;;10.10;;
3677;SDS011;1855;50.934;6.958;2022-12-18T03:43:07;11.20;;;10.00;;
3677;SDS011;1855;50.934;6.958;2022-12-18T03:45:46;11.60;;;10.50;;
3677;SDS011;1855;50.934;6.958;2022-12-18T03:48:18;11.07;;;9.85;;
3677;SDS011;1855;50.934;6.958;2022-12-18T03:50:53;12.02;;;10.80;;
3677;SDS011;1855;50.934;6.958;2022-12-18T03:53:25;11.35;;;10.15;;
3677;SDS011;1855;50.934;6.958;2022-12-18T03:55:58;11.88;;;10.38;;
3677;SDS011;1855;50.934;6.958;2022-12-18T03:58:27;11.60;;;10.40;;
3677;SDS011;1855;50.934;6.958;2022-12-18T04:00:57;13.83;;;10.70;;
3677;SDS011;1855;50.934;6.958;2022-12-18T04:03:27;11.05;;;9.90;;
3677;SDS011;1855;50.934;6.958;2022-12-18T04:05:56;11.45;;;10.30;;
3677;SDS011;1855;50.934;6.958;2022-12-18T04:08:26;11.95;;;10.60;;
3677;SDS011;1855;50.934;6.958;2022-12-18T04:10:53;13.43;;;11.40;;
3677;SDS011;1855;50.934;6.958;2022-12-18T04:13:23;11.70;;;10.57;;
3677;SDS011;1855;50.934;6.958;2022-12-18T04:15:50;13.10;;;11.27;;
3677;SDS011;1855;50.934;6.958;2022-12-18T04:18:18;11.18;;;9.98;;
3677;SDS011;1855;50.934;6.958;2022-12-18T04:20:45;13.48;;;12.07;;
3677;SDS011;1855;50.934;6.958;2022-12-18T04:23:12;13.80;;;11.18;;
3677;SDS011;1855;50.934;6.958;2022-12-18T04:25:39;13.15;;;11.75;;
3677;SDS011;1855;50.934;6.958;2022-12-18T04:28:06;13.43;;;11.85;;
3677;SDS011;1855;50.934;6.958;2022-12-18T04:30:33;12.57;;;11.38;;
3677;SDS011;1855;50.934;6.958;2022-12-18T04:33:00;12.85;;;11.45;;
3677;SDS011;1855;50.934;6.958;2022-12-18T04:35:28;12.60;;;11.30;;
3677;SDS011;1855;50.934;6.958;2022-12-18T04:37:55;14.40;;;12.90;;
3677;SDS011;1855;50.934;6.958;2022-12-18T04:40:21;13.30;;;11.90;;
3677;SDS011;1855;50.934;6.958;2022-12-18T04:42:48;13.25;;;11.63;;
3677;SDS011;1855;50.934;6.958;2022-12-18T04:45:15;13.80;;;12.25;;
3677;SDS011;1855;50.934;6.958;2022-12-18T04:47:42;13.25;;;11.82;;
3677;SDS011;1855;50.934;6.958;2022-12-18T04:50:09;14.30;;;12.38;;
3677;SDS011;1855;50.934;6.958;2022-12-18T04:52:37;14.45;;;12.90;;
3677;SDS011;1855;50.934;6.958;2022-12-18T04:55:04;12.98;;;11.57;;
3677;SDS011;1855;50.934;6.958;2022-12-18T04:57:31;14.20;;;11.60;;
3677;SDS011;1855;50.934;6.958;2022-12-18T04:59:58;14.43;;;12.87;;
3677;SDS011;1855;50.934;6.958;2022-12-18T05:02:24;14.05;;;12.55;;
3677;SDS011;1855;50.934;6.958;2022-12-18T05:04:51;13.03;;;11.63;;
3677;SDS011;1855;50.934;6.958;2022-12-18T05:07:18;13.35;;;11.95;;
3677;SDS011;1855;50.934;6.958;2022-12-18T05:09:46;15.27;;;12.85;;
3677;SDS011;1855;50.934;6.958;2022-12-18T05:12:13;15.30;;;13.30;;
3677;SDS011;1855;50.934;6.958;2022-12-18T05:14:40;14.10;;;12.20;;
3677;SDS011;1855;50.934;6.958;2022-12-18T05:17:07;13.73;;;12.32;;
3677;SDS011;1855;50.934;6.958;2022-12-18T05:19:33;13.90;;;11.82;;
3677;SDS011;1855;50.934;6.958;2022-12-18T05:22:00;13.35;;;11.95;;
3677;SDS011;1855;50.934;6.958;2022-12-18T05:24:27;14.50;;;12.50;;
3677;SDS011;1855;50.934;6.958;2022-12-18T05:26:55;13.85;;;12.35;;
3677;SDS011;1855;50.934;6.958;2022-12-18T05:29:22;13.10;;;11.70;;
3677;SDS011;1855;50.934;6.958;2022-12-18T05:31:49;14.25;;;12.60;;
3677;SDS011;1855;50.934;6.958;2022-12-18T05:34:15;13.50;;;12.10;;
3677;SDS011;1855;50.934;6.958;2022-12-18T05:36:42;13.97;;;11.93;;
3677;SDS011;1855;50.934;6.958;2022-12-18T05:39:09;12.90;;;11.55;;
3677;SDS011;1855;50.934;6.958;2022-12-18T05:41:36;12.32;;;11.02;;
3677;SDS011;1855;50.934;6.958;2022-12-18T05:44:04;13.85;;;12.05;;
3677;SDS011;1855;50.934;6.958;2022-12-18T05:46:31;13.70;;;12.25;;
3677;SDS011;1855;50.934;6.958;2022-12-18T05:48:58;14.38;;;11.95;;
3677;SDS011;1855;50.934;6.958;2022-12-18T05:51:26;14.18;;;11.93;;
3677;SDS011;1855;50.934;6.958;2022-12-18T05:53:53;14.25;;;12.38;;
3677;SDS011;1855;50.934;6.958;2022-12-18T05:56:21;13.30;;;11.90;;
3677;SDS011;1855;50.934;6.958;2022-12-18T05:58:51;13.63;;;12.23;;
3677;SDS011;1855;50.934;6.958;2022-12-18T06:01:21;12.48;;;11.18;;
3677;SDS011;1855;50.934;6.958;2022-12-18T06:03:49;13.67;;;12.00;;
3677;SDS011;1855;50.934;6.958;2022-12-18T06:06:16;13.60;;;12.20;;
3677;SDS011;1855;50.934;6.958;2022-12-18T06:08:44;14.00;;;12.03;;
3677;SDS011;1855;50.934;6.958;2022-12-18T06:11:12;14.27;;;12.82;;
3677;SDS011;1855;50.934;6.958;2022-12-18T06:13:39;13.77;;;12.27;;
3677;SDS011;1855;50.934;6.958;2022-12-18T06:16:06;13.87;;;12.17;;
3677;SDS011;1855;50.934;6.958;2022-12-18T06:18:35;14.38;;;12.50;;
3677;SDS011;1855;50.934;6.958;2022-12-18T06:21:03;14.07;;;12.68;;
3677;SDS011;1855;50.934;6.958;2022-12-18T06:23:30;15.70;;;13.30;;
3677;SDS011;1855;50.934;6.958;2022-12-18T06:25:56;14.00;;;12.55;;
3677;SDS011;1855;50.934;6.958;2022-12-18T06:28:23;13.98;;;12.48;;
3677;SDS011;1855;50.934;6.958;2022-12-18T06:30:50;15.35;;;13.13;;
3677;SDS011;1855;50.934;6.958;2022-12-18T06:33:18;13.50;;;12.10;;
3677;SDS011;1855;50.934;6.958;2022-12-18T06:35:46;14.55;;;12.50;;
3677;SDS011;1855;50.934;6.958;2022-12-18T06:38:12;14.70;;;12.70;;
3677;SDS011;1855;50.934;6.958;2022-12-18T06:40:39;13.70;;;12.10;;
3677;SDS011;1855;50.934;6.958;2022-12-18T06:43:06;14.35;;;12.68;;
3677;SDS011;1855;50.934;6.958;2022-12-18T06:45:32;14.40;;;12.32;;
3677;SDS011;1855;50.934;6.958;2022-12-18T06:48:00;14.10;;;12.53;;
3677;SDS011;1855;50.934;6.958;2022-12-18T06:50:27;14.27;;;12.52;;
3677;SDS011;1855;50.934;6.958;2022-12-18T06:52:55;15.10;;;12.93;;
3677;SDS011;1855;50.934;6.958;2022-12-18T06:55:22;15.25;;;13.60;;
3677;SDS011;1855;50.934;6.958;2022-12-18T06:57:49;15.23;;;13.70;;
3677;SDS011;1855;50.934;6.958;2022-12-18T07:00:15;14.55;;;12.75;;
3677;SDS011;1855;50.934;6.958;2022-12-18T07:02:43;15.23;;;13.63;;
3677;SDS011;1855;50.934;6.958;2022-12-18T07:05:09;15.83;;;14.20;;
3677;SDS011;1855;50.934;6.958;2022-12-18T07:07:36;14.30;;;12.85;;
3677;SDS011;1855;50.934;6.958;2022-12-18T07:10:05;14.73;;;13.07;;
3677;SDS011;1855;50.934;6.958;2022-12-18T07:12:32;14.85;;;13.25;;
3677;SDS011;1855;50.934;6.958;2022-12-18T07:14:58;14.77;;;13.20;;
3677;SDS011;1855;50.934;6.958;2022-12-18T07:17:25;15.23;;;13.68;;
3677;SDS011;1855;50.934;6.958;2022-12-18T07:19:52;15.23;;;13.73;;
3677;SDS011;1855;50.934;6.958;2022-12-18T07:22:18;15.05;;;13.45;;
3677;SDS011;1855;50.934;6.958;2022-12-18T07:24:45;15.38;;;13.45;;
3677;SDS011;1855;50.934;6.958;2022-12-18T07:27:13;16.10;;;13.30;;
3677;SDS011;1855;50.934;6.958;2022-12-18T07:29:40;15.48;;;13.88;;
3677;SDS011;1855;50.934;6.958;2022-12-18T07:32:07;15.38;;;13.77;;
3677;SDS011;1855;50.934;6.958;2022-12-18T07:34:34;15.07;;;13.48;;
3677;SDS011;1855;50.934;6.958;2022-12-18T07:37:00;15.77;;;13.70;;
3677;SDS011;1855;50.934;6.958;2022-12-18T07:39:27;16.02;;;14.10;;
3677;SDS011;1855;50.934;6.958;2022-12-18T07:41:54;15.13;;;13.52;;
3677;SDS011;1855;50.934;6.958;2022-12-18T07:44:39;15.45;;;13.70;;
3677;SDS011;1855;50.934;6.958;2022-12-18T07:47:06;15.70;;;14.00;;
3677;SDS011;1855;50.934;6.958;2022-12-18T07:49:33;16.45;;;14.10;;
3677;SDS011;1855;50.934;6.958;2022-12-18T07:51:59;16.67;;;14.20;;
3677;SDS011;1855;50.934;6.958;2022-12-18T07:54:26;15.32;;;13.73;;
3677;SDS011;1855;50.934;6.958;2022-12-18T07:56:53;15.98;;;14.20;;
3677;SDS011;1855;50.934;6.958;2022-12-18T07:59:20;15.65;;;14.00;;
3677;SDS011;1855;50.934;6.958;2022-12-18T08:01:48;15.55;;;13.95;;
3677;SDS011;1855;50.934;6.958;2022-12-18T08:04:15;14.70;;;13.10;;
3677;SDS011;1855;50.934;6.958;2022-12-18T08:06:42;14.77;;;13.00;;
3677;SDS011;1855;50.934;6.958;2022-12-18T08:09:09;15.20;;;13.63;;
3677;SDS011;1855;50.934;6.958;2022-12-18T08:11:36;15.70;;;13.85;;
3677;SDS011;1855;50.934;6.958;2022-12-18T08:14:03;15.45;;;13.85;;
3677;SDS011;1855;50.934;6.958;2022-12-18T08:16:30;16.50;;;13.87;;
3677;SDS011;1855;50.934;6.958;2022-12-18T08:18:58;15.75;;;13.52;;
3677;SDS011;1855;50.934;6.958;2022-12-18T08:21:25;14.60;;;13.10;;
3677;SDS011;1855;50.934;6.958;2022-12-18T08:23:54;15.20;;;13.70;;
3677;SDS011;1855;50.934;6.958;2022-12-18T08:26:23;14.60;;;13.00;;
3677;SDS011;1855;50.934;6.958;2022-12-18T08:28:51;15.20;;;13.60;;
3677;SDS011;1855;50.934;6.958;2022-12-18T08:31:20;15.05;;;12.98;;
3677;SDS011;1855;50.934;6.958;2022-12-18T08:33:47;14.20;;;12.70;;
3677;SDS011;1855;50.934;6.958;2022-12-18T08:36:16;14.68;;;13.07;;
3677;SDS011;1855;50.934;6.958;2022-12-18T08:38:44;14.88;;;13.27;;
3677;SDS011;1855;50.934;6.958;2022-12-18T08:41:11;14.60;;;13.00;;
3677;SDS011;1855;50.934;6.958;2022-12-18T08:43:39;15.30;;;13.32;;
3677;SDS011;1855;50.934;6.958;2022-12-18T08:46:24;14.02;;;12.52;;
3677;SDS011;1855;50.934;6.958;2022-12-18T08:48:53;14.65;;;13.05;;
3677;SDS011;1855;50.934;6.958;2022-12-18T08:51:21;15.43;;;13.13;;
3677;SDS011;1855;50.934;6.958;2022-12-18T08:53:48;14.68;;;13.18;;
3677;SDS011;1855;50.934;6.958;2022-12-18T08:56:15;13.95;;;12.55;;
3677;SDS011;1855;50.934;6.958;2022-12-18T08:58:42;13.35;;;11.95;;
3677;SDS011;1855;50.934;6.958;2022-12-18T09:01:10;13.30;;;11.90;;
3677;SDS011;1855;50.934;6.958;2022-12-18T09:03:37;13.90;;;12.18;;
3677;SDS011;1855;50.934;6.958;2022-12-18T09:06:04;14.02;;;11.98;;
3677;SDS011;1855;50.934;6.958;2022-12-18T09:08:33;13.18;;;11.63;;
3677;SDS011;1855;50.934;6.958;2022-12-18T09:10:59;13.07;;;11.68;;
3677;SDS011;1855;50.934;6.958;2022-12-18T09:13:26;12.32;;;11.13;;
3677;SDS011;1855;50.934;6.958;2022-12-18T09:15:54;13.55;;;12.10;;
3677;SDS011;1855;50.934;6.958;2022-12-18T09:18:22;12.68;;;11.38;;
3677;SDS011;1855;50.934;6.958;2022-12-18T09:20:49;13.05;;;11.65;;
3677;SDS011;1855;50.934;6.958;2022-12-18T09:23:17;12.10;;;10.80;;
3677;SDS011;1855;50.934;6.958;2022-12-18T09:25:45;12.33;;;10.50;;
3677;SDS011;1855;50.934;6.958;2022-12-18T09:28:12;13.18;;;11.57;;
3677;SDS011;1855;50.934;6.958;2022-12-18T09:30:41;12.60;;;11.30;;
3677;SDS011;1855;50.934;6.958;2022-12-18T09:33:09;12.60;;;11.25;;
3677;SDS011;1855;50.934;6.958;2022-12-18T09:35:36;13.57;;;12.18;;
3677;SDS011;1855;50.934;6.958;2022-12-18T09:38:03;12.15;;;10.88;;
3677;SDS011;1855;50.934;6.958;2022-12-18T09:40:32;12.82;;;11.52;;
3677;SDS011;1855;50.934;6.958;2022-12-18T09:43:03;13.32;;;12.02;;
3677;SDS011;1855;50.934;6.958;2022-12-18T09:45:32;12.60;;;11.30;;
3677;SDS011;1855;50.934;6.958;2022-12-18T09:48:08;11.98;;;10.68;;
3677;SDS011;1855;50.934;6.958;2022-12-18T09:50:41;12.02;;;10.73;;
3677;SDS011;1855;50.934;6.958;2022-12-18T09:53:10;12.05;;;10.65;;
3677;SDS011;1855;50.934;6.958;2022-12-18T09:55:41;12.15;;;10.88;;
3677;SDS011;1855;50.934;6.958;2022-12-18T09:58:13;12.65;;;11.35;;
3677;SDS011;1855;50.934;6.958;2022-12-18T10:00:45;13.82;;;11.70;;
3677;SDS011;1855;50.934;6.958;2022-12-18T10:03:12;14.15;;;12.20;;
3677;SDS011;1855;50.934;6.958;2022-12-18T10:05:41;12.13;;;10.90;;
3677;SDS011;1855;50.934;6.958;2022-12-18T10:08:17;12.68;;;11.38;;
3677;SDS011;1855;50.934;6.958;2022-12-18T10:10:48;13.63;;;12.23;;
3677;SDS011;1855;50.934;6.958;2022-12-18T10:13:24;13.65;;;11.40;;
3677;SDS011;1855;50.934;6.958;2022-12-18T10:16:03;12.32;;;11.02;;
3677;SDS011;1855;50.934;6.958;2022-12-18T10:21:36;12.27;;;10.90;;
3677;SDS011;1855;50.934;6.958;2022-12-18T10:24:10;12.50;;;11.20;;
3677;SDS011;1855;50.934;6.958;2022-12-18T10:26:41;13.13;;;11.80;;
3677;SDS011;1855;50.934;6.958;2022-12-18T10:29:11;13.17;;;11.87;;
3677;SDS011;1855;50.934;6.958;2022-12-18T10:31:39;13.03;;;11.63;;
3677;SDS011;1855;50.934;6.958;2022-12-18T10:34:08;13.00;;;11.27;;
3677;SDS011;1855;50.934;6.958;2022-12-18T10:36:36;13.07;;;11.68;;
3677;SDS011;1855;50.934;6.958;2022-12-18T10:39:13;13.70;;;11.70;;
3677;SDS011;1855;50.934;6.958;2022-12-18T10:41:41;13.73;;;11.55;;
3677;SDS011;1855;50.934;6.958;2022-12-18T10:46:55;11.85;;;10.75;;
3677;SDS011;1855;50.934;6.958;2022-12-18T10:49:30;12.50;;;11.20;;
3677;SDS011;1855;50.934;6.958;2022-12-18T10:52:05;12.70;;;11.40;;
3677;SDS011;1855;50.934;6.958;2022-12-18T10:54:37;12.55;;;11.25;;
3677;SDS011;1855;50.934;6.958;2022-12-18T10:57:14;12.60;;;11.30;;
3677;SDS011;1855;50.934;6.958;2022-12-18T10:59:51;13.25;;;11.20;;
3677;SDS011;1855;50.934;6.958;2022-12-18T11:02:27;11.93;;;10.48;;
3677;SDS011;1855;50.934;6.958;2022-12-18T11:04:59;12.48;;;11.15;;
3677;SDS011;1855;50.934;6.958;2022-12-18T11:07:26;13.30;;;11.30;;
3677;SDS011;1855;50.934;6.958;2022-12-18T11:10:25;12.43;;;11.13;;
3677;SDS011;1855;50.934;6.958;2022-12-18T11:12:54;13.77;;;11.70;;
3677;SDS011;1855;50.934;6.958;2022-12-18T11:15:25;11.70;;;10.50;;
3677;SDS011;1855;50.934;6.958;2022-12-18T11:17:55;14.27;;;12.02;;
3677;SDS011;1855;50.934;6.958;2022-12-18T11:20:26;13.20;;;11.80;;
3677;SDS011;1855;50.934;6.958;2022-12-18T11:22:58;12.88;;;11.57;;
3677;SDS011;1855;50.934;6.958;2022-12-18T11:25:26;13.25;;;11.35;;
3677;SDS011;1855;50.934;6.958;2022-12-18T11:27:54;13.75;;;11.93;;
3677;SDS011;1855;50.934;6.958;2022-12-18T11:30:25;13.73;;;12.02;;
3677;SDS011;1855;50.934;6.958;2022-12-18T11:32:54;13.65;;;12.25;;
3677;SDS011;1855;50.934;6.958;2022-12-18T11:35:28;13.00;;;11.60;;
3677;SDS011;1855;50.934;6.958;2022-12-18T11:38:15;13.88;;;12.38;;
3677;SDS011;1855;50.934;6.958;2022-12-18T11:40:47;13.13;;;11.73;;
3677;SDS011;1855;50.934;6.958;2022-12-18T11:43:20;14.80;;;11.90;;
3677;SDS011;1855;50.934;6.958;2022-12-18T11:45:54;13.68;;;11.32;;
3677;SDS011;1855;50.934;6.958;2022-12-18T11:48:25;14.05;;;11.98;;
3677;SDS011;1855;50.934;6.958;2022-12-18T11:50:55;13.50;;;12.05;;
3677;SDS011;1855;50.934;6.958;2022-12-18T11:53:24;12.50;;;11.05;;
3677;SDS011;1855;50.934;6.958;2022-12-18T11:55:56;13.57;;;12.17;;
3677;SDS011;1855;50.934;6.958;2022-12-18T11:58:43;13.35;;;11.18;;
3677;SDS011;1855;50.934;6.958;2022-12-18T12:01:18;14.13;;;12.65;;
3677;SDS011;1855;50.934;6.958;2022-12-18T12:04:01;14.18;;;12.20;;
3677;SDS011;1855;50.934;6.958;2022-12-18T12:06:51;13.65;;;12.13;;
3677;SDS011;1855;50.934;6.958;2022-12-18T12:09:26;13.45;;;11.75;;
3677;SDS011;1855;50.934;6.958;2022-12-18T12:12:01;14.70;;;13.10;;
3677;SDS011;1855;50.934;6.958;2022-12-18T12:14:43;13.95;;;12.38;;
3677;SDS011;1855;50.934;6.958;2022-12-18T12:17:20;13.30;;;11.90;;
3677;SDS011;1855;50.934;6.958;2022-12-18T12:19:56;13.73;;;12.20;;
3677;SDS011;1855;50.934;6.958;2022-12-18T12:22:30;14.00;;;12.50;;
3677;SDS011;1855;50.934;6.958;2022-12-18T12:25:07;13.02;;;11.57;;
3677;SDS011;1855;50.934;6.958;2022-12-18T12:27:47;15.77;;;12.93;;
3677;SDS011;1855;50.934;6.958;2022-12-18T12:30:20;13.02;;;11.73;;
3677;SDS011;1855;50.934;6.958;2022-12-18T12:32:57;14.07;;;12.60;;
3677;SDS011;1855;50.934;6.958;2022-12-18T12:35:38;13.90;;;12.40;;
3677;SDS011;1855;50.934;6.958;2022-12-18T12:38:13;15.20;;;12.50;;
3677;SDS011;1855;50.934;6.958;2022-12-18T12:40:45;14.73;;;13.23;;
3677;SDS011;1855;50.934;6.958;2022-12-18T12:43:27;17.10;;;12.70;;
3677;SDS011;1855;50.934;6.958;2022-12-18T12:46:00;15.20;;;13.60;;
3677;SDS011;1855;50.934;6.958;2022-12-18T12:48:36;15.50;;;13.37;;
3677;SDS011;1855;50.934;6.958;2022-12-18T12:51:09;15.80;;;13.82;;
3677;SDS011;1855;50.934;6.958;2022-12-18T12:53:41;14.68;;;13.10;;
3677;SDS011;1855;50.934;6.958;2022-12-18T12:56:09;14.60;;;13.10;;
3677;SDS011;1855;50.934;6.958;2022-12-18T12:58:41;14.05;;;12.55;;
3677;SDS011;1855;50.934;6.958;2022-12-18T13:01:16;15.48;;;13.23;;
3677;SDS011;1855;50.934;6.958;2022-12-18T13:03:54;16.40;;;13.13;;
3677;SDS011;1855;50.934;6.958;2022-12-18T13:06:36;16.60;;;14.40;;
3677;SDS011;1855;50.934;6.958;2022-12-18T13:09:08;15.23;;;13.65;;
3677;SDS011;1855;50.934;6.958;2022-12-18T13:11:36;16.98;;;14.27;;
3677;SDS011;1855;50.934;6.958;2022-12-18T13:14:23;15.55;;;13.85;;
3677;SDS011;1855;50.934;6.958;2022-12-18T13:20:05;15.30;;;13.45;;
3677;SDS011;1855;50.934;6.958;2022-12-18T13:22:35;18.00;;;14.10;;
3677;SDS011;1855;50.934;6.958;2022-12-18T13:25:03;16.50;;;14.70;;
3677;SDS011;1855;50.934;6.958;2022-12-18T13:28:05;15.55;;;13.95;;
3677;SDS011;1855;50.934;6.958;2022-12-18T13:30:44;17.50;;;14.73;;
3677;SDS011;1855;50.934;6.958;2022-12-18T13:36:12;15.95;;;14.00;;
3677;SDS011;1855;50.934;6.958;2022-12-18T13:41:51;16.15;;;14.43;;
3677;SDS011;1855;50.934;6.958;2022-12-18T13:44:23;17.08;;;15.23;;
3677;SDS011;1855;50.934;6.958;2022-12-18T13:46:54;15.18;;;13.55;;
3677;SDS011;1855;50.934;6.958;2022-12-18T13:49:22;16.35;;;14.65;;
3677;SDS011;1855;50.934;6.958;2022-12-18T13:51:52;15.85;;;14.15;;
3677;SDS011;1855;50.934;6.958;2022-12-18T13:54:22;17.00;;;14.68;;
3677;SDS011;1855;50.934;6.958;2022-12-18T13:56:54;15.95;;;14.07;;
3677;SDS011;1855;50.934;6.958;2022-12-18T13:59:22;16.40;;;14.70;;
3677;SDS011;1855;50.934;6.958;2022-12-18T14:01:51;17.07;;;15.20;;
3677;SDS011;1855;50.934;6.958;2022-12-18T14:04:21;15.90;;;14.27;;
3677;SDS011;1855;50.934;6.958;2022-12-18T14:06:50;18.02;;;14.88;;
3677;SDS011;1855;50.934;6.958;2022-12-18T14:09:21;16.00;;;14.20;;
3677;SDS011;1855;50.934;6.958;2022-12-18T14:11:51;17.92;;;16.02;;
3677;SDS011;1855;50.934;6.958;2022-12-18T14:14:40;16.80;;;15.07;;
3677;SDS011;1855;50.934;6.958;2022-12-18T14:17:08;19.45;;;16.35;;
3677;SDS011;1855;50.934;6.958;2022-12-18T14:19:36;17.30;;;15.50;;
3677;SDS011;1855;50.934;6.958;2022-12-18T14:22:11;17.10;;;14.93;;
3677;SDS011;1855;50.934;6.958;2022-12-18T14:24:40;17.15;;;15.35;;
3677;SDS011;1855;50.934;6.958;2022-12-18T14:27:12;17.77;;;15.80;;
3677;SDS011;1855;50.934;6.958;2022-12-18T14:29:45;17.58;;;15.68;;
3677;SDS011;1855;50.934;6.958;2022-12-18T14:32:12;16.88;;;15.18;;
3677;SDS011;1855;50.934;6.958;2022-12-18T14:34:42;17.20;;;15.40;;
3677;SDS011;1855;50.934;6.958;2022-12-18T14:37:10;17.17;;;15.13;;
3677;SDS011;1855;50.934;6.958;2022-12-18T14:39:39;17.60;;;15.00;;
3677;SDS011;1855;50.934;6.958;2022-12-18T14:42:09;16.63;;;14.52;;
3677;SDS011;1855;50.934;6.958;2022-12-18T14:44:36;17.70;;;15.80;;
3677;SDS011;1855;50.934;6.958;2022-12-18T14:47:03;17.77;;;15.30;;
3677;SDS011;1855;50.934;6.958;2022-12-18T14:49:30;18.10;;;16.20;;
3677;SDS011;1855;50.934;6.958;2022-12-18T14:51:59;17.83;;;15.70;;
3677;SDS011;1855;50.934;6.958;2022-12-18T14:54:28;18.10;;;16.00;;
3677;SDS011;1855;50.934;6.958;2022-12-18T14:56:59;18.10;;;15.77;;
3677;SDS011;1855;50.934;6.958;2022-12-18T14:59:28;17.55;;;15.65;;
3677;SDS011;1855;50.934;6.958;2022-12-18T15:01:57;18.33;;;15.63;;
3677;SDS011;1855;50.934;6.958;2022-12-18T15:04:28;17.50;;;15.70;;
3677;SDS011;1855;50.934;6.958;2022-12-18T15:12:40;18.48;;;16.58;;
3677;SDS011;1855;50.934;6.958;2022-12-18T15:18:11;17.60;;;15.80;;
3677;SDS011;1855;50.934;6.958;2022-12-18T15:20:40;17.42;;;15.05;;
3677;SDS011;1855;50.934;6.958;2022-12-18T15:23:12;17.73;;;15.52;;
3677;SDS011;1855;50.934;6.958;2022-12-18T15:25:40;17.30;;;15.40;;
3677;SDS011;1855;50.934;6.958;2022-12-18T15:28:15;18.23;;;15.57;;
3677;SDS011;1855;50.934;6.958;2022-12-18T15:30:57;17.30;;;15.20;;